New Baltimore, New York
Current Conditions -  °F | °C
As of 4:51 AM on Saturday 25 Oct 2014 (Local Time) from KALB Reporting Station
Few Clouds Few Clouds  
Wind Chill: 45°   Ceiling: Unl
Heat Index: 45°   Visibility: 10mi
Dew Point: 39°   Wind: 0mph
Humidity: 80%   Direction: NA
Pressure: 29.84"   Gusts: NA
Location:  42.45°N, 73.79°W
Report Text: KALB 250851Z 00000KT 10SM FEW230 07/04 A2984 RMK AO2 SLP104 T00720039 58002 $
Loading
Personal Weather Stations






























Interactive Weather Map
Tropical Storm Tracking
New forecast layout! Learn more

10-Day Weather Forecast

Advertisements
Track Severe Weather on mobile